createdAt,value
2018-07-01T00:01:34.200Z,18.30
2018-07-01T00:04:03.449Z,18.30
2018-07-01T00:06:32.735Z,18.20
2018-07-01T00:09:01.787Z,18.20
2018-07-01T00:11:30.205Z,18.20
2018-07-01T00:13:58.991Z,18.10
2018-07-01T00:16:27.387Z,18.10
2018-07-01T00:18:56.557Z,18.00
2018-07-01T00:21:25.060Z,17.90
2018-07-01T00:23:53.456Z,17.90
2018-07-01T00:26:21.812Z,17.90
2018-07-01T00:28:50.273Z,17.90
2018-07-01T00:31:18.658Z,17.90
2018-07-01T00:33:47.156Z,17.80
2018-07-01T00:36:15.588Z,17.80
2018-07-01T00:38:44.032Z,17.80
2018-07-01T00:41:12.594Z,17.70
2018-07-01T00:43:41.178Z,17.60
2018-07-01T00:46:10.192Z,17.60
2018-07-01T00:48:38.692Z,17.60
2018-07-01T00:53:35.004Z,17.60
2018-07-01T00:56:03.492Z,17.60
2018-07-01T00:58:32.472Z,17.60
2018-07-01T01:01:00.887Z,17.50
2018-07-01T01:03:29.218Z,17.50
2018-07-01T01:05:58.466Z,17.50
2018-07-01T01:08:27.527Z,17.50
2018-07-01T01:10:56.622Z,17.50
2018-07-01T01:13:25.089Z,17.50
2018-07-01T01:15:53.524Z,17.40
2018-07-01T01:18:21.981Z,17.40
2018-07-01T01:20:51.514Z,17.40
2018-07-01T01:23:19.932Z,17.30
2018-07-01T01:25:48.878Z,17.30
2018-07-01T01:28:17.376Z,17.30
2018-07-01T01:30:46.142Z,17.30
2018-07-01T01:33:15.156Z,17.30
2018-07-01T01:35:44.503Z,17.30
2018-07-01T01:38:13.387Z,17.20
2018-07-01T01:40:51.351Z,17.30
2018-07-01T01:43:29.197Z,17.30
2018-07-01T01:46:02.072Z,17.30
2018-07-01T01:48:36.522Z,17.30
2018-07-01T01:51:12.428Z,17.20
2018-07-01T01:54:00.087Z,17.20
2018-07-01T01:56:33.058Z,17.20
2018-07-01T01:59:05.220Z,17.20
2018-07-01T02:01:56.028Z,17.10
2018-07-01T02:04:32.608Z,17.10
2018-07-01T02:07:04.896Z,17.10
2018-07-01T02:09:35.300Z,17.00
2018-07-01T02:12:05.854Z,17.00
2018-07-01T02:14:38.813Z,16.90
2018-07-01T02:17:11.448Z,16.90
2018-07-01T02:19:39.824Z,16.90
2018-07-01T02:22:10.652Z,16.80
2018-07-01T02:24:42.765Z,16.80
2018-07-01T02:27:11.544Z,16.80
2018-07-01T02:29:39.937Z,16.70
2018-07-01T02:32:08.935Z,16.70
2018-07-01T02:34:37.349Z,16.70
2018-07-01T02:37:05.786Z,16.70
2018-07-01T02:39:34.169Z,16.60
2018-07-01T02:42:02.637Z,16.60
2018-07-01T02:44:30.973Z,16.60
2018-07-01T02:46:59.406Z,16.60
2018-07-01T02:49:27.910Z,16.50
2018-07-01T02:51:56.370Z,16.50
2018-07-01T02:54:24.808Z,16.40
2018-07-01T02:56:53.866Z,16.40
2018-07-01T02:59:22.300Z,16.40
2018-07-01T03:01:51.515Z,16.40
2018-07-01T03:04:20.679Z,16.40
2018-07-01T03:06:49.152Z,16.40
2018-07-01T03:09:17.507Z,16.40
2018-07-01T03:14:13.893Z,16.40
2018-07-01T03:16:43.128Z,16.40
2018-07-01T03:19:12.090Z,16.30
2018-07-01T03:21:40.892Z,16.30
2018-07-01T03:24:09.266Z,16.20
2018-07-01T03:26:38.082Z,16.20
2018-07-01T03:29:06.586Z,16.20
2018-07-01T03:31:36.185Z,16.20
2018-07-01T03:34:04.784Z,16.30
2018-07-01T03:36:33.372Z,16.20
2018-07-01T03:39:02.172Z,16.30
2018-07-01T03:41:30.699Z,16.30
2018-07-01T03:43:59.687Z,16.20
2018-07-01T03:46:28.032Z,16.20
2018-07-01T03:51:24.404Z,16.20
2018-07-01T03:53:52.800Z,16.30
2018-07-01T03:56:21.302Z,16.20
2018-07-01T03:58:49.687Z,16.20
2018-07-01T04:01:18.696Z,16.30
2018-07-01T04:03:47.077Z,16.30
2018-07-01T04:06:15.607Z,16.20
2018-07-01T04:08:44.008Z,16.20
2018-07-01T04:11:12.716Z,16.30
2018-07-01T04:13:41.111Z,16.40
2018-07-01T04:16:10.586Z,17.50
2018-07-01T04:18:39.078Z,19.10
2018-07-01T04:21:07.728Z,20.90
2018-07-01T04:23:36.126Z,22.00
2018-07-01T04:26:04.539Z,23.50
2018-07-01T04:28:33.284Z,24.70
2018-07-01T04:31:02.029Z,25.50
2018-07-01T04:33:30.385Z,25.60
2018-07-01T04:35:59.070Z,25.10
2018-07-01T04:38:27.445Z,25.40
2018-07-01T04:40:55.811Z,25.60
2018-07-01T04:43:24.242Z,25.40
2018-07-01T04:45:53.183Z,25.90
2018-07-01T04:48:21.603Z,25.90
2018-07-01T04:50:49.997Z,26.30
2018-07-01T04:53:18.408Z,26.30
2018-07-01T04:55:46.840Z,27.40
2018-07-01T04:58:15.207Z,27.70
2018-07-01T05:00:43.614Z,28.50
2018-07-01T05:03:12.676Z,29.10
2018-07-01T05:05:41.044Z,29.30
2018-07-01T05:08:09.546Z,29.70
2018-07-01T05:10:38.016Z,29.00
2018-07-01T05:13:06.495Z,29.20
2018-07-01T05:15:34.973Z,29.30
2018-07-01T05:18:03.549Z,29.40
2018-07-01T05:20:32.558Z,29.50
2018-07-01T05:23:00.960Z,29.70
2018-07-01T05:25:29.410Z,30.10
2018-07-01T05:27:57.940Z,29.80
2018-07-01T05:30:26.907Z,29.90
2018-07-01T05:32:55.305Z,29.60
2018-07-01T05:35:24.052Z,28.40
2018-07-01T05:37:52.542Z,26.80
2018-07-01T05:40:21.374Z,25.30
2018-07-01T05:42:51.016Z,24.00
2018-07-01T05:45:20.090Z,23.00
2018-07-01T05:47:48.416Z,22.10
2018-07-01T05:50:16.807Z,21.50
2018-07-01T05:52:45.171Z,21.00
2018-07-01T05:55:13.898Z,20.60
2018-07-01T05:57:42.443Z,20.40
2018-07-01T06:00:11.269Z,20.20
2018-07-01T06:02:39.626Z,20.10
2018-07-01T06:05:08.155Z,20.00
2018-07-01T06:07:36.750Z,19.90
2018-07-01T06:10:07.356Z,19.80
2018-07-01T06:12:35.743Z,19.70
2018-07-01T06:15:04.181Z,19.80
2018-07-01T06:17:33.297Z,19.80
2018-07-01T06:20:01.697Z,19.80
2018-07-01T06:22:30.113Z,19.70
2018-07-01T06:24:58.515Z,19.70
2018-07-01T06:27:27.916Z,19.70
2018-07-01T06:29:56.765Z,19.70
2018-07-01T06:32:25.106Z,19.80
2018-07-01T06:34:53.647Z,19.90
2018-07-01T06:37:22.397Z,19.90
2018-07-01T06:39:50.911Z,19.90
2018-07-01T06:42:19.291Z,19.80
2018-07-01T06:44:47.733Z,19.80
2018-07-01T06:47:16.473Z,19.90
2018-07-01T06:49:45.516Z,19.90
2018-07-01T06:52:14.012Z,20.00
2018-07-01T06:54:42.930Z,20.00
2018-07-01T06:57:12.004Z,20.10
2018-07-01T06:59:40.393Z,20.10
2018-07-01T07:02:09.461Z,20.10
2018-07-01T07:04:38.364Z,20.20
2018-07-01T07:07:06.769Z,20.30
2018-07-01T07:09:36.132Z,20.20
2018-07-01T07:12:05.992Z,20.30
2018-07-01T07:14:34.432Z,20.40
2018-07-01T07:17:03.179Z,20.50
2018-07-01T07:19:31.601Z,20.50
2018-07-01T07:22:00.062Z,20.50
2018-07-01T07:24:28.491Z,20.50
2018-07-01T07:26:56.925Z,20.50
2018-07-01T07:29:25.364Z,20.70
2018-07-01T07:31:53.828Z,20.60
2018-07-01T07:34:22.820Z,20.70
2018-07-01T07:36:51.419Z,20.60
2018-07-01T07:39:20.085Z,20.60
2018-07-01T07:41:48.523Z,20.60
2018-07-01T07:44:17.984Z,20.50
2018-07-01T07:46:47.080Z,20.60
2018-07-01T07:49:15.463Z,20.70
2018-07-01T07:51:44.602Z,20.60
2018-07-01T07:54:13.304Z,20.70
2018-07-01T07:56:41.720Z,20.80
2018-07-01T07:59:10.159Z,20.80
2018-07-01T08:01:38.545Z,20.90
2018-07-01T08:04:07.291Z,21.00
2018-07-01T08:06:36.422Z,21.00
2018-07-01T08:09:06.906Z,21.10
2018-07-01T08:11:35.437Z,21.10
2018-07-01T08:14:04.835Z,21.10
2018-07-01T08:16:33.664Z,21.20
2018-07-01T08:19:03.016Z,21.10
2018-07-01T08:21:32.191Z,21.20
2018-07-01T08:24:00.831Z,21.30
2018-07-01T08:26:29.346Z,21.40
2018-07-01T08:28:58.157Z,21.40
2018-07-01T08:31:27.595Z,21.40
2018-07-01T08:33:57.124Z,21.50
2018-07-01T08:36:25.651Z,21.50
2018-07-01T08:38:54.088Z,21.60
2018-07-01T08:41:23.851Z,21.70
2018-07-01T08:43:52.495Z,21.70
2018-07-01T08:46:22.167Z,21.70
2018-07-01T08:48:50.602Z,21.70
2018-07-01T08:51:20.626Z,21.70
2018-07-01T08:53:50.477Z,21.60
2018-07-01T08:56:19.931Z,21.70
2018-07-01T08:58:49.616Z,21.60
2018-07-01T09:01:21.045Z,21.70
2018-07-01T09:03:50.983Z,21.70
2018-07-01T09:06:20.954Z,21.70
2018-07-01T09:08:50.502Z,21.60
2018-07-01T09:11:19.997Z,21.60
2018-07-01T09:13:49.578Z,21.80
2018-07-01T09:16:19.059Z,21.70
2018-07-01T09:18:50.085Z,21.70
2018-07-01T09:21:19.994Z,21.80
2018-07-01T09:23:49.988Z,21.90
2018-07-01T09:26:21.043Z,22.00
2018-07-01T09:28:50.565Z,22.20
2018-07-01T09:31:20.560Z,22.10
2018-07-01T09:33:51.389Z,22.20
2018-07-01T09:36:21.899Z,22.30
2018-07-01T09:38:53.680Z,22.30
2018-07-01T09:41:23.273Z,22.40
2018-07-01T09:43:54.163Z,22.60
2018-07-01T09:46:25.311Z,22.70
2018-07-01T09:48:55.368Z,22.80
2018-07-01T09:51:25.689Z,22.80
2018-07-01T09:53:58.547Z,22.80
2018-07-01T09:56:28.139Z,22.70
2018-07-01T09:58:57.801Z,22.30
2018-07-01T10:01:28.349Z,22.30
2018-07-01T10:03:58.050Z,22.30
2018-07-01T10:06:27.929Z,22.30
2018-07-01T10:08:58.330Z,22.30
2018-07-01T10:11:28.437Z,22.30
2018-07-01T10:13:58.308Z,22.40
2018-07-01T10:16:28.377Z,22.40
2018-07-01T10:18:58.016Z,22.50
2018-07-01T10:21:28.437Z,22.70
2018-07-01T10:26:28.336Z,22.90
2018-07-01T10:29:06.879Z,23.00
2018-07-01T10:31:36.983Z,23.10
2018-07-01T10:34:07.551Z,23.10
2018-07-01T10:36:37.282Z,23.10
2018-07-01T10:39:09.724Z,23.00
2018-07-01T10:41:39.232Z,22.90
2018-07-01T10:44:08.809Z,22.80
2018-07-01T10:46:38.510Z,22.80
2018-07-01T10:49:09.216Z,22.90
2018-07-01T10:51:39.956Z,22.90
2018-07-01T10:54:09.846Z,23.00
2018-07-01T10:56:40.084Z,23.00
2018-07-01T10:59:09.866Z,23.20
2018-07-01T11:01:40.156Z,23.30
2018-07-01T11:04:10.809Z,23.40
2018-07-01T11:06:40.765Z,23.30
2018-07-01T11:09:11.937Z,23.40
2018-07-01T11:11:42.310Z,23.40
2018-07-01T11:14:11.784Z,23.50
2018-07-01T11:16:42.666Z,23.70
2018-07-01T11:19:12.887Z,23.70
2018-07-01T11:21:42.724Z,23.60
2018-07-01T11:24:12.153Z,23.70
2018-07-01T11:26:42.493Z,23.50
2018-07-01T11:29:15.863Z,23.40
2018-07-01T11:31:45.175Z,23.30
2018-07-01T11:34:15.941Z,23.20
2018-07-01T11:36:45.892Z,23.20
2018-07-01T11:39:15.724Z,23.30
2018-07-01T11:44:15.248Z,23.50
2018-07-01T11:46:44.826Z,23.50
2018-07-01T11:49:14.773Z,23.40
2018-07-01T11:51:45.615Z,23.50
2018-07-01T11:54:15.614Z,23.50
2018-07-01T11:56:45.725Z,23.50
2018-07-01T11:59:16.228Z,23.60
2018-07-01T12:01:46.211Z,23.60
2018-07-01T12:04:17.118Z,23.60
2018-07-01T12:06:47.222Z,23.80
2018-07-01T12:09:18.867Z,23.80
2018-07-01T12:11:48.376Z,23.70
2018-07-01T12:14:18.515Z,23.80
2018-07-01T12:16:48.641Z,23.90
2018-07-01T12:19:18.265Z,23.90
2018-07-01T12:21:47.808Z,24.00
2018-07-01T12:24:19.498Z,23.90
2018-07-01T12:26:49.489Z,24.00
2018-07-01T12:29:19.945Z,24.10
2018-07-01T12:31:50.297Z,24.20
2018-07-01T12:34:19.893Z,24.20
2018-07-01T12:36:49.350Z,24.30
2018-07-01T12:39:18.840Z,24.50
2018-07-01T12:41:48.284Z,24.50
2018-07-01T12:44:18.211Z,24.40
2018-07-01T12:46:48.488Z,24.40
2018-07-01T12:49:18.010Z,24.40
2018-07-01T12:51:48.106Z,24.30
2018-07-01T12:54:18.500Z,24.30
2018-07-01T12:56:48.656Z,24.10
2018-07-01T12:59:18.223Z,24.20
2018-07-01T13:01:48.533Z,24.20
2018-07-01T13:04:17.901Z,24.40
2018-07-01T13:06:47.500Z,24.50
2018-07-01T13:09:16.851Z,24.50
2018-07-01T13:11:47.792Z,24.50
2018-07-01T13:14:17.205Z,24.70
2018-07-01T13:16:46.525Z,24.90
2018-07-01T13:19:16.071Z,24.90
2018-07-01T13:21:45.519Z,24.90
2018-07-01T13:24:15.689Z,24.90
2018-07-01T13:26:45.107Z,24.90
2018-07-01T13:29:15.833Z,24.90
2018-07-01T13:31:45.845Z,24.90
2018-07-01T13:34:16.393Z,24.70
2018-07-01T13:36:45.925Z,24.60
2018-07-01T13:39:15.349Z,24.50
2018-07-01T13:41:44.935Z,24.50
2018-07-01T13:44:14.313Z,24.60
2018-07-01T13:46:44.408Z,24.60
2018-07-01T13:49:14.259Z,24.60
2018-07-01T13:51:43.944Z,24.60
2018-07-01T13:54:13.968Z,24.70
2018-07-01T13:56:44.764Z,24.80
2018-07-01T13:59:14.499Z,25.00
2018-07-01T14:01:44.099Z,25.10
2018-07-01T14:04:14.034Z,25.20
2018-07-01T14:06:43.562Z,25.20
2018-07-01T14:09:13.543Z,25.10
2018-07-01T14:11:43.743Z,25.10
2018-07-01T14:14:13.188Z,25.20
2018-07-01T14:16:43.509Z,25.10
2018-07-01T14:19:13.956Z,25.00
2018-07-01T14:21:44.587Z,25.10
2018-07-01T14:24:14.057Z,25.20
2018-07-01T14:26:44.099Z,25.20
2018-07-01T14:29:13.695Z,25.30
2018-07-01T14:31:43.215Z,25.40
2018-07-01T14:34:13.266Z,25.40
2018-07-01T14:36:43.138Z,25.30
2018-07-01T14:41:43.495Z,25.30
2018-07-01T14:44:13.412Z,25.40
2018-07-01T14:46:43.446Z,25.50
2018-07-01T14:49:13.179Z,25.60
2018-07-01T14:51:43.399Z,25.60
2018-07-01T14:54:13.254Z,25.50
2018-07-01T14:56:42.762Z,25.50
2018-07-01T14:59:12.685Z,25.60
2018-07-01T15:01:42.282Z,25.70
2018-07-01T15:04:12.442Z,25.70
2018-07-01T15:06:41.839Z,25.70
2018-07-01T15:09:12.328Z,25.80
2018-07-01T15:11:41.968Z,25.80
2018-07-01T15:14:11.668Z,25.70
2018-07-01T15:16:41.208Z,25.60
2018-07-01T15:19:10.644Z,25.50
2018-07-01T15:21:40.541Z,25.40
2018-07-01T15:24:10.675Z,25.50
2018-07-01T15:26:41.339Z,25.40
2018-07-01T15:29:10.908Z,25.60
2018-07-01T15:31:40.570Z,25.70
2018-07-01T15:34:10.665Z,25.70
2018-07-01T15:36:40.295Z,25.70
2018-07-01T15:39:11.007Z,25.50
2018-07-01T15:41:40.485Z,25.40
2018-07-01T15:44:10.501Z,25.40
2018-07-01T15:46:39.905Z,25.40
2018-07-01T15:49:10.137Z,25.40
2018-07-01T15:51:40.654Z,25.50
2018-07-01T15:54:10.935Z,25.50
2018-07-01T15:56:40.471Z,25.50
2018-07-01T15:59:10.084Z,25.40
2018-07-01T16:01:40.550Z,25.50
2018-07-01T16:04:10.026Z,25.40
2018-07-01T16:06:39.491Z,25.30
2018-07-01T16:09:11.295Z,25.50
2018-07-01T16:11:41.464Z,25.50
2018-07-01T16:14:11.098Z,25.60
2018-07-01T16:16:41.119Z,25.60
2018-07-01T16:19:10.844Z,25.30
2018-07-01T16:21:40.216Z,25.30
2018-07-01T16:24:09.813Z,25.30
2018-07-01T16:26:44.461Z,25.30
2018-07-01T16:29:13.888Z,25.40
2018-07-01T16:31:44.131Z,25.50
2018-07-01T16:34:14.277Z,25.50
2018-07-01T16:36:45.070Z,25.50
2018-07-01T16:39:15.866Z,25.50
2018-07-01T16:41:46.927Z,25.50
2018-07-01T16:44:16.753Z,25.50
2018-07-01T16:46:46.178Z,25.60
2018-07-01T16:49:15.517Z,25.40
2018-07-01T16:51:44.888Z,25.50
2018-07-01T16:54:15.310Z,25.60
2018-07-01T16:56:44.614Z,25.60
2018-07-01T16:59:14.104Z,25.70
2018-07-01T17:01:43.999Z,25.70
2018-07-01T17:04:13.634Z,25.70
2018-07-01T17:06:43.211Z,25.60
2018-07-01T17:09:12.770Z,25.50
2018-07-01T17:11:42.212Z,25.50
2018-07-01T17:14:11.661Z,25.50
2018-07-01T17:16:41.724Z,25.70
2018-07-01T17:19:11.161Z,25.70
2018-07-01T17:21:40.645Z,25.80
2018-07-01T17:24:10.792Z,25.80
2018-07-01T17:26:41.157Z,25.60
2018-07-01T17:29:10.590Z,25.60
2018-07-01T17:31:45.318Z,25.60
2018-07-01T17:34:14.667Z,25.70
2018-07-01T17:36:44.189Z,25.70
2018-07-01T17:39:14.072Z,25.70
2018-07-01T17:41:44.612Z,25.70
2018-07-01T17:44:14.729Z,25.70
2018-07-01T17:46:44.797Z,25.60
2018-07-01T17:49:14.964Z,25.50
2018-07-01T17:54:14.637Z,25.20
2018-07-01T17:56:44.558Z,25.10
2018-07-01T17:59:14.119Z,25.20
2018-07-01T18:01:43.750Z,25.10
2018-07-01T18:04:13.778Z,24.80
2018-07-01T18:06:43.911Z,24.80
2018-07-01T18:09:14.732Z,24.80
2018-07-01T18:11:44.281Z,24.90
2018-07-01T18:14:13.909Z,24.90
2018-07-01T18:16:43.337Z,24.90
2018-07-01T18:19:13.805Z,24.90
2018-07-01T18:21:52.999Z,24.90
2018-07-01T18:24:42.846Z,24.90
2018-07-01T18:26:44.893Z,24.70
2018-07-01T18:29:18.697Z,24.70
2018-07-01T18:31:44.802Z,24.70
2018-07-01T18:34:14.452Z,24.60
2018-07-01T18:36:44.496Z,24.60
2018-07-01T18:39:15.394Z,24.50
2018-07-01T18:41:45.827Z,24.40
2018-07-01T18:44:15.456Z,24.20
2018-07-01T18:46:45.077Z,24.00
2018-07-01T18:49:14.470Z,23.90
2018-07-01T18:51:44.471Z,23.90
2018-07-01T18:54:14.514Z,23.80
2018-07-01T18:56:44.797Z,23.80
2018-07-01T18:59:16.824Z,23.70
2018-07-01T19:01:47.610Z,23.60
2018-07-01T19:04:18.193Z,23.60
2018-07-01T19:06:48.302Z,23.50
2018-07-01T19:09:19.724Z,23.40
2018-07-01T19:11:51.144Z,23.20
2018-07-01T19:14:21.814Z,23.20
2018-07-01T19:16:51.975Z,23.00
2018-07-01T19:19:23.475Z,22.90
2018-07-01T19:21:54.187Z,22.80
2018-07-01T19:24:24.481Z,22.70
2018-07-01T19:26:53.956Z,22.60
2018-07-01T19:29:24.883Z,22.50
2018-07-01T19:31:56.471Z,22.40
2018-07-01T19:34:25.995Z,22.40
2018-07-01T19:36:56.735Z,22.30
2018-07-01T19:39:28.981Z,22.30
2018-07-01T19:42:00.113Z,22.30
2018-07-01T19:44:30.165Z,22.20
2018-07-01T19:47:00.198Z,22.10
2018-07-01T19:49:30.109Z,22.10
2018-07-01T19:52:01.306Z,22.00
2018-07-01T19:54:31.191Z,21.80
2018-07-01T19:57:01.907Z,21.60
2018-07-01T19:59:32.331Z,21.40
2018-07-01T20:02:01.995Z,21.20
2018-07-01T20:04:31.517Z,21.10
2018-07-01T20:07:01.256Z,20.90
2018-07-01T20:09:31.265Z,21.00
2018-07-01T20:12:01.233Z,20.90
2018-07-01T20:14:30.905Z,20.80
2018-07-01T20:17:01.241Z,20.80
2018-07-01T20:19:31.386Z,20.80
2018-07-01T20:22:01.390Z,20.60
2018-07-01T20:24:31.984Z,20.40
2018-07-01T20:27:03.406Z,20.20
2018-07-01T20:29:35.160Z,20.20
2018-07-01T20:32:04.734Z,20.10
2018-07-01T20:34:37.529Z,20.10
2018-07-01T20:37:09.714Z,19.90
2018-07-01T20:39:41.712Z,20.00
2018-07-01T20:42:12.469Z,19.90
2018-07-01T20:44:43.670Z,19.80
2018-07-01T20:47:14.569Z,19.80
2018-07-01T20:49:44.203Z,19.70
2018-07-01T20:52:14.675Z,19.70
2018-07-01T20:54:47.157Z,19.70
2018-07-01T20:57:17.066Z,19.40
2018-07-01T20:59:48.224Z,19.10
2018-07-01T21:02:19.146Z,18.80
2018-07-01T21:04:48.429Z,18.50
2018-07-01T21:07:18.711Z,18.30
2018-07-01T21:09:50.206Z,18.10
2018-07-01T21:12:20.090Z,18.00
2018-07-01T21:14:49.920Z,17.80
2018-07-01T21:17:20.072Z,17.70
2018-07-01T21:19:50.620Z,17.60
2018-07-01T21:22:20.700Z,17.60
2018-07-01T21:24:50.156Z,17.50
2018-07-01T21:27:21.226Z,17.40
2018-07-01T21:29:51.849Z,17.30
2018-07-01T21:32:21.261Z,17.20
2018-07-01T21:34:52.188Z,17.10
2018-07-01T21:37:22.463Z,17.00
2018-07-01T21:39:51.835Z,16.80
2018-07-01T21:42:21.868Z,16.70
2018-07-01T21:44:51.244Z,16.50
2018-07-01T21:47:22.385Z,16.40
2018-07-01T21:49:52.303Z,16.40
2018-07-01T21:52:22.124Z,16.20
2018-07-01T21:54:52.895Z,16.10
2018-07-01T21:57:23.559Z,16.10
2018-07-01T21:59:53.469Z,16.00
2018-07-01T22:02:24.612Z,16.00
2018-07-01T22:04:54.071Z,16.00
2018-07-01T22:07:24.410Z,15.90
2018-07-01T22:09:53.664Z,15.70
2018-07-01T22:12:35.060Z,15.70
2018-07-01T22:15:22.102Z,15.60
2018-07-01T22:17:51.790Z,15.40
2018-07-01T22:20:22.039Z,15.30
2018-07-01T22:22:53.272Z,15.40
2018-07-01T22:25:23.407Z,15.30
2018-07-01T22:27:54.841Z,15.30
2018-07-01T22:30:24.436Z,15.30
2018-07-01T22:32:55.245Z,15.20
2018-07-01T22:35:25.713Z,15.20
2018-07-01T22:37:57.333Z,15.00
2018-07-01T22:40:27.803Z,15.00
2018-07-01T22:42:57.807Z,15.00
2018-07-01T22:45:28.976Z,14.90
2018-07-01T22:47:59.227Z,14.90
2018-07-01T22:50:30.427Z,14.80
2018-07-01T22:53:01.068Z,14.80
2018-07-01T22:55:30.435Z,14.80
2018-07-01T22:57:59.824Z,14.80
2018-07-01T23:00:29.361Z,14.70
2018-07-01T23:03:14.972Z,14.60
2018-07-01T23:05:44.804Z,14.50
2018-07-01T23:08:14.871Z,14.40
2018-07-01T23:10:44.245Z,14.40
2018-07-01T23:13:15.451Z,14.40
2018-07-01T23:15:45.229Z,14.20
2018-07-01T23:18:15.215Z,14.20
2018-07-01T23:20:45.520Z,14.20
2018-07-01T23:23:15.605Z,14.10
2018-07-01T23:25:45.105Z,14.10
2018-07-01T23:28:14.448Z,14.00
2018-07-01T23:30:44.842Z,14.10
2018-07-01T23:33:14.678Z,14.00
2018-07-01T23:35:44.244Z,13.90
2018-07-01T23:40:43.215Z,13.90
2018-07-01T23:43:13.406Z,13.80
2018-07-01T23:45:42.684Z,13.80
2018-07-01T23:48:12.164Z,13.70
2018-07-01T23:50:41.511Z,13.70
2018-07-01T23:53:10.882Z,13.80
2018-07-01T23:55:40.216Z,13.80
2018-07-01T23:58:09.661Z,13.90
